createdAt,value
2023-05-23T00:01:01.472Z,47.85
2023-05-23T00:03:31.557Z,48.00
2023-05-23T00:06:00.735Z,48.71
2023-05-23T00:08:29.886Z,50.92
2023-05-23T00:10:58.885Z,48.49
2023-05-23T00:13:29.446Z,47.97
2023-05-23T00:15:58.434Z,52.09
2023-05-23T00:18:27.606Z,49.63
2023-05-23T00:20:57.473Z,51.59
2023-05-23T00:23:29.773Z,49.62
2023-05-23T00:25:58.802Z,48.61
2023-05-23T00:28:29.284Z,49.71
2023-05-23T00:30:58.278Z,52.40
2023-05-23T00:33:27.519Z,50.57
2023-05-23T00:35:56.516Z,49.14
2023-05-23T00:38:26.833Z,50.31
2023-05-23T00:40:56.774Z,52.02
2023-05-23T00:43:26.234Z,53.55
2023-05-23T00:45:56.723Z,51.61
2023-05-23T00:48:26.699Z,50.13
2023-05-23T00:50:55.831Z,50.36
2023-05-23T00:53:25.367Z,51.86
2023-05-23T00:55:54.232Z,53.15
2023-05-23T00:58:24.194Z,54.37
2023-05-23T01:00:54.568Z,52.85
2023-05-23T01:03:28.857Z,55.23
2023-05-23T01:05:58.064Z,54.07
2023-05-23T01:08:27.191Z,52.57
2023-05-23T01:10:57.588Z,50.72
2023-05-23T01:13:32.157Z,51.02
2023-05-23T01:16:06.093Z,53.75
2023-05-23T01:18:41.469Z,52.11
2023-05-23T01:21:13.129Z,53.59
2023-05-23T01:23:57.234Z,51.00
2023-05-23T01:26:35.084Z,51.30
2023-05-23T01:29:14.895Z,51.31
2023-05-23T01:31:45.231Z,50.93
2023-05-23T01:34:15.022Z,53.58
2023-05-23T01:36:44.892Z,50.56
2023-05-23T01:39:14.088Z,50.52
2023-05-23T01:41:43.080Z,51.25
2023-05-23T01:44:14.062Z,51.58
2023-05-23T01:46:44.470Z,53.67
2023-05-23T01:49:14.815Z,52.28
2023-05-23T01:51:44.121Z,56.02
2023-05-23T01:54:16.957Z,53.71
2023-05-23T01:56:46.201Z,55.86
2023-05-23T01:59:16.789Z,52.63
2023-05-23T02:01:46.092Z,51.48
2023-05-23T02:04:15.853Z,53.67
2023-05-23T02:06:44.687Z,53.09
2023-05-23T02:09:15.775Z,52.42
2023-05-23T02:11:46.895Z,55.30
2023-05-23T02:14:18.616Z,55.56
2023-05-23T02:16:47.578Z,56.87
2023-05-23T02:19:16.914Z,56.42
2023-05-23T02:21:48.484Z,53.44
2023-05-23T02:24:17.856Z,51.77
2023-05-23T02:26:47.423Z,51.19
2023-05-23T02:29:18.007Z,53.42
2023-05-23T02:31:47.847Z,52.97
2023-05-23T02:34:17.286Z,53.50
2023-05-23T02:36:46.260Z,53.92
2023-05-23T02:39:15.759Z,56.98
2023-05-23T02:41:46.711Z,54.91
2023-05-23T02:44:16.115Z,53.34
2023-05-23T02:46:46.475Z,53.79
2023-05-23T02:49:15.785Z,54.80
2023-05-23T02:51:44.596Z,56.42
2023-05-23T02:54:13.830Z,54.34
2023-05-23T02:56:42.669Z,55.50
2023-05-23T02:59:12.387Z,54.41
2023-05-23T03:01:41.380Z,57.74
2023-05-23T03:04:13.757Z,55.00
2023-05-23T03:06:44.506Z,57.41
2023-05-23T03:09:13.823Z,58.68
2023-05-23T03:11:42.678Z,56.86
2023-05-23T03:14:12.056Z,56.25
2023-05-23T03:16:41.854Z,59.29
2023-05-23T03:19:14.728Z,58.51
2023-05-23T03:21:44.364Z,59.39
2023-05-23T03:24:13.732Z,61.23
2023-05-23T03:26:42.589Z,61.59
2023-05-23T03:29:12.099Z,61.03
2023-05-23T03:31:41.004Z,59.39
2023-05-23T03:34:10.262Z,59.14
2023-05-23T03:36:40.553Z,59.27
2023-05-23T03:39:09.713Z,60.73
2023-05-23T03:41:38.654Z,60.85
2023-05-23T03:44:08.095Z,61.38
2023-05-23T03:46:37.557Z,60.91
2023-05-23T03:49:07.305Z,60.79
2023-05-23T03:51:36.225Z,60.01
2023-05-23T03:54:07.226Z,60.81
2023-05-23T03:56:36.233Z,61.63
2023-05-23T03:59:06.396Z,61.36
2023-05-23T04:01:35.311Z,57.65
2023-05-23T04:04:05.043Z,60.96
2023-05-23T04:06:37.387Z,60.65
2023-05-23T04:09:08.278Z,61.00
2023-05-23T04:11:42.576Z,61.65
2023-05-23T04:14:12.581Z,58.88
2023-05-23T04:16:42.539Z,59.64
2023-05-23T04:19:12.516Z,59.76
2023-05-23T04:21:41.467Z,60.42
2023-05-23T04:24:14.065Z,61.56
2023-05-23T04:26:43.433Z,61.68
2023-05-23T04:29:13.244Z,62.29
2023-05-23T04:31:42.214Z,62.21
2023-05-23T04:34:12.154Z,62.96
2023-05-23T04:36:44.803Z,63.22
2023-05-23T04:39:16.069Z,61.39
2023-05-23T04:41:58.282Z,60.76
2023-05-23T04:44:51.280Z,61.13
2023-05-23T04:47:28.933Z,62.58
2023-05-23T04:50:06.620Z,62.01
2023-05-23T04:52:36.265Z,60.34
2023-05-23T04:55:08.773Z,58.86
2023-05-23T04:57:38.450Z,58.29
2023-05-23T05:00:10.541Z,59.65
2023-05-23T05:02:40.415Z,59.20
2023-05-23T05:05:10.118Z,60.15
2023-05-23T05:07:39.361Z,57.58
2023-05-23T05:10:16.983Z,56.64
2023-05-23T05:12:49.560Z,56.46
2023-05-23T05:15:19.574Z,55.66
2023-05-23T05:17:52.781Z,55.88
2023-05-23T05:20:23.832Z,56.40
2023-05-23T05:22:56.760Z,56.43
2023-05-23T05:25:31.926Z,56.30
2023-05-23T05:28:03.203Z,55.98
2023-05-23T05:30:35.309Z,57.86
2023-05-23T05:33:04.801Z,55.87
2023-05-23T05:35:34.996Z,56.62
2023-05-23T05:38:05.168Z,54.91
2023-05-23T05:40:36.023Z,54.42
2023-05-23T05:43:05.010Z,54.30
2023-05-23T05:45:34.947Z,54.01
2023-05-23T05:48:04.132Z,53.70
2023-05-23T05:50:33.526Z,53.72
2023-05-23T05:53:03.485Z,53.44
2023-05-23T05:55:32.679Z,53.94
2023-05-23T05:58:03.673Z,54.68
2023-05-23T06:00:43.504Z,54.13
2023-05-23T06:03:13.062Z,55.45
2023-05-23T06:05:49.844Z,55.21
2023-05-23T06:08:18.824Z,55.15
2023-05-23T06:10:48.039Z,56.32
2023-05-23T06:13:21.479Z,55.04
2023-05-23T06:15:55.118Z,56.40
2023-05-23T06:18:24.980Z,55.51
2023-05-23T06:20:54.509Z,54.77
2023-05-23T06:23:24.225Z,54.99
2023-05-23T06:25:54.354Z,55.20
2023-05-23T06:28:24.921Z,54.32
2023-05-23T06:30:54.405Z,54.91
2023-05-23T06:33:23.284Z,54.12
2023-05-23T06:35:52.426Z,54.84
2023-05-23T06:38:21.287Z,53.77
2023-05-23T06:40:50.490Z,54.74
2023-05-23T06:43:24.582Z,53.37
2023-05-23T06:45:58.586Z,52.89
2023-05-23T06:48:31.465Z,52.87
2023-05-23T06:51:02.815Z,52.29
2023-05-23T06:53:31.838Z,51.44
2023-05-23T06:56:00.994Z,50.38
2023-05-23T06:58:30.047Z,49.85
2023-05-23T07:01:02.574Z,50.51
2023-05-23T07:03:35.235Z,50.34
2023-05-23T07:06:08.100Z,50.00
2023-05-23T07:08:37.440Z,49.97
2023-05-23T07:11:07.208Z,49.24
2023-05-23T07:13:40.761Z,49.28
2023-05-23T07:16:14.021Z,48.97
2023-05-23T07:18:54.392Z,48.36
2023-05-23T07:21:25.389Z,47.88
2023-05-23T07:23:54.599Z,48.02
2023-05-23T07:26:24.806Z,47.41
2023-05-23T07:28:57.525Z,47.45
2023-05-23T07:31:28.222Z,47.63
2023-05-23T07:34:00.191Z,46.01
2023-05-23T07:36:47.646Z,47.05
2023-05-23T07:39:22.103Z,47.18
2023-05-23T07:41:52.654Z,46.79
2023-05-23T07:44:24.851Z,47.11
2023-05-23T07:46:57.074Z,46.54
2023-05-23T07:49:27.001Z,45.80
2023-05-23T07:51:57.272Z,44.79
2023-05-23T07:54:26.995Z,45.14
2023-05-23T07:57:00.533Z,45.81
2023-05-23T07:59:30.218Z,45.57
2023-05-23T08:02:01.983Z,45.08
2023-05-23T08:04:32.521Z,43.47
2023-05-23T08:07:05.404Z,43.70
2023-05-23T08:09:47.542Z,43.57
2023-05-23T08:12:20.320Z,43.85
2023-05-23T08:14:52.922Z,42.76
2023-05-23T08:17:28.216Z,43.53
2023-05-23T08:19:57.482Z,42.94
2023-05-23T08:22:26.550Z,43.05
2023-05-23T08:24:56.667Z,43.02
2023-05-23T08:27:27.120Z,42.16
2023-05-23T08:29:59.865Z,41.12
2023-05-23T08:32:30.604Z,42.21
2023-05-23T08:34:59.739Z,43.13
2023-05-23T08:37:28.905Z,41.66
2023-05-23T08:39:58.474Z,42.70
2023-05-23T08:42:41.157Z,42.33
2023-05-23T08:45:11.903Z,42.07
2023-05-23T08:47:43.729Z,41.62
2023-05-23T08:50:13.802Z,42.40
2023-05-23T08:52:44.694Z,42.53
2023-05-23T08:55:14.459Z,42.42
2023-05-23T08:57:45.744Z,42.18
2023-05-23T09:00:42.372Z,42.41
2023-05-23T09:03:14.290Z,40.96
2023-05-23T09:05:56.455Z,40.98
2023-05-23T09:08:26.218Z,40.93
2023-05-23T09:10:59.287Z,39.77
2023-05-23T09:13:29.591Z,39.33
2023-05-23T09:16:04.354Z,39.34
2023-05-23T09:18:41.130Z,39.25
2023-05-23T09:21:10.862Z,39.85
2023-05-23T09:23:45.864Z,40.50
2023-05-23T09:26:15.146Z,39.91
2023-05-23T09:28:47.151Z,40.35
2023-05-23T09:31:16.698Z,39.29
2023-05-23T09:33:49.288Z,39.81
2023-05-23T09:36:20.280Z,40.71
2023-05-23T09:38:49.978Z,40.25
2023-05-23T09:41:21.493Z,41.04
2023-05-23T09:43:54.299Z,40.38
2023-05-23T09:46:23.785Z,37.89
2023-05-23T09:48:55.920Z,38.68
2023-05-23T09:51:25.149Z,38.71
2023-05-23T09:54:13.722Z,38.99
2023-05-23T09:56:43.747Z,39.17
2023-05-23T09:59:14.959Z,39.54
2023-05-23T10:01:46.170Z,39.48
2023-05-23T10:04:18.435Z,38.62
2023-05-23T10:06:52.096Z,38.66
2023-05-23T10:09:23.480Z,38.73
2023-05-23T10:12:10.913Z,39.05
2023-05-23T10:14:42.255Z,39.33
2023-05-23T10:17:16.674Z,39.00
2023-05-23T10:19:54.622Z,37.70
2023-05-23T10:22:23.865Z,37.83
2023-05-23T10:24:53.865Z,38.07
2023-05-23T10:27:22.911Z,37.62
2023-05-23T10:29:52.725Z,38.39
2023-05-23T10:32:22.033Z,37.27
2023-05-23T10:34:58.887Z,36.71
2023-05-23T10:37:30.958Z,35.92
2023-05-23T10:40:02.358Z,36.72
2023-05-23T10:42:39.604Z,37.00
2023-05-23T10:45:16.100Z,36.71
2023-05-23T10:47:45.301Z,35.95
2023-05-23T10:50:16.388Z,35.53
2023-05-23T10:52:45.362Z,36.21
2023-05-23T10:55:15.358Z,36.09
2023-05-23T10:57:44.552Z,36.64
2023-05-23T11:00:14.804Z,36.54
2023-05-23T11:02:55.780Z,36.21
2023-05-23T11:05:32.033Z,36.10
2023-05-23T11:08:11.292Z,36.01
2023-05-23T11:10:56.830Z,35.50
2023-05-23T11:13:25.793Z,36.50
2023-05-23T11:15:54.963Z,36.75
2023-05-23T11:18:25.666Z,36.32
2023-05-23T11:20:56.649Z,35.01
2023-05-23T11:23:25.699Z,35.28
2023-05-23T11:25:55.558Z,35.56
2023-05-23T11:28:25.057Z,35.01
2023-05-23T11:30:54.306Z,34.52
2023-05-23T11:33:23.240Z,34.61
2023-05-23T11:35:53.073Z,35.67
2023-05-23T11:38:23.563Z,34.96
2023-05-23T11:40:52.806Z,34.50
2023-05-23T11:43:21.661Z,34.97
2023-05-23T11:45:51.438Z,34.89
2023-05-23T11:48:20.568Z,34.86
2023-05-23T11:50:50.741Z,34.45
2023-05-23T11:53:21.780Z,34.64
2023-05-23T11:55:54.416Z,34.81
2023-05-23T11:58:23.913Z,35.05
2023-05-23T12:00:55.076Z,34.65
2023-05-23T12:03:24.599Z,34.97
2023-05-23T12:05:53.915Z,35.20
2023-05-23T12:08:23.145Z,35.14
2023-05-23T12:10:58.556Z,34.26
2023-05-23T12:13:27.922Z,34.15
2023-05-23T12:15:58.656Z,33.79
2023-05-23T12:18:29.408Z,35.15
2023-05-23T12:21:00.835Z,34.56
2023-05-23T12:23:31.846Z,34.78
2023-05-23T12:26:05.659Z,34.91
2023-05-23T12:28:38.376Z,34.40
2023-05-23T12:31:12.348Z,34.97
2023-05-23T12:33:43.918Z,35.65
2023-05-23T12:36:13.609Z,34.51
2023-05-23T12:38:45.635Z,34.09
2023-05-23T12:41:19.937Z,33.78
2023-05-23T12:43:52.783Z,33.94
2023-05-23T12:46:23.024Z,33.21
2023-05-23T12:48:52.104Z,32.82
2023-05-23T12:51:21.526Z,32.55
2023-05-23T12:53:50.507Z,32.89
2023-05-23T12:56:22.434Z,33.08
2023-05-23T12:58:51.595Z,33.16
2023-05-23T13:01:21.591Z,33.29
2023-05-23T13:03:50.877Z,33.98
2023-05-23T13:06:19.993Z,32.55
2023-05-23T13:08:50.831Z,32.56
2023-05-23T13:11:22.580Z,33.53
2023-05-23T13:13:52.768Z,33.42
2023-05-23T13:16:22.190Z,33.64
2023-05-23T13:18:51.136Z,34.07
2023-05-23T13:21:20.596Z,33.04
2023-05-23T13:23:49.415Z,34.30
2023-05-23T13:26:18.658Z,34.26
2023-05-23T13:28:49.082Z,33.67
2023-05-23T13:31:18.399Z,33.90
2023-05-23T13:33:47.323Z,33.47
2023-05-23T13:36:16.635Z,32.76
2023-05-23T13:38:45.526Z,33.56
2023-05-23T13:41:15.068Z,33.82
2023-05-23T13:43:43.911Z,33.24
2023-05-23T13:46:14.877Z,32.31
2023-05-23T13:48:43.938Z,31.11
2023-05-23T13:51:13.227Z,31.58
2023-05-23T13:53:42.376Z,33.16
2023-05-23T13:56:11.748Z,30.66
2023-05-23T13:58:42.926Z,30.91
2023-05-23T14:01:12.286Z,30.87
2023-05-23T14:03:42.538Z,30.02
2023-05-23T14:06:11.824Z,30.81
2023-05-23T14:08:40.705Z,30.56
2023-05-23T14:11:09.888Z,30.79
2023-05-23T14:13:38.799Z,30.53
2023-05-23T14:16:08.208Z,30.36
2023-05-23T14:18:37.183Z,30.14
2023-05-23T14:21:07.856Z,29.37
2023-05-23T14:23:36.731Z,30.41
2023-05-23T14:26:06.635Z,30.67
2023-05-23T14:28:35.569Z,29.77
2023-05-23T14:31:04.985Z,30.94
2023-05-23T14:33:34.759Z,30.27
2023-05-23T14:36:04.815Z,30.00
2023-05-23T14:38:35.197Z,30.03
2023-05-23T14:41:04.537Z,30.18
2023-05-23T14:43:33.438Z,30.26
2023-05-23T14:46:02.807Z,30.45
2023-05-23T14:48:32.424Z,28.32
2023-05-23T14:51:02.866Z,27.67
2023-05-23T14:53:31.891Z,29.21
2023-05-23T14:56:02.720Z,28.66
2023-05-23T14:58:32.901Z,29.05
2023-05-23T15:01:02.489Z,28.86
2023-05-23T15:03:31.881Z,28.37
2023-05-23T15:06:01.088Z,29.03
2023-05-23T15:08:30.534Z,29.43
2023-05-23T15:10:59.669Z,29.39
2023-05-23T15:13:29.993Z,28.46
2023-05-23T15:15:59.290Z,29.51
2023-05-23T15:18:38.839Z,29.83
2023-05-23T15:21:10.746Z,29.85
2023-05-23T15:23:39.711Z,30.08
2023-05-23T15:26:09.027Z,29.01
2023-05-23T15:28:39.390Z,29.10
2023-05-23T15:31:08.683Z,30.02
2023-05-23T15:33:37.676Z,30.04
2023-05-23T15:36:07.416Z,30.40
2023-05-23T15:38:36.432Z,30.12
2023-05-23T15:41:06.395Z,30.27
2023-05-23T15:43:36.137Z,29.72
2023-05-23T15:46:07.109Z,30.76
2023-05-23T15:48:36.363Z,29.72
2023-05-23T15:51:05.675Z,30.09
2023-05-23T15:53:40.114Z,31.09
2023-05-23T15:56:17.380Z,30.00
2023-05-23T15:58:46.435Z,30.53
2023-05-23T16:01:16.982Z,30.29
2023-05-23T16:03:45.937Z,29.55
2023-05-23T16:06:15.234Z,29.77
2023-05-23T16:08:44.093Z,29.70
2023-05-23T16:11:13.768Z,28.58
2023-05-23T16:13:42.690Z,28.46
2023-05-23T16:16:11.946Z,30.40
2023-05-23T16:18:42.239Z,28.31
2023-05-23T16:21:11.617Z,29.45
2023-05-23T16:23:40.704Z,29.62
2023-05-23T16:26:09.798Z,30.04
2023-05-23T16:28:38.818Z,28.87
2023-05-23T16:31:08.111Z,29.68
2023-05-23T16:33:37.258Z,29.76
2023-05-23T16:36:08.216Z,29.73
2023-05-23T16:38:37.328Z,29.55
2023-05-23T16:41:06.742Z,28.81
2023-05-23T16:43:35.930Z,29.87
2023-05-23T16:46:05.244Z,30.27
2023-05-23T16:48:34.311Z,29.82
2023-05-23T16:51:03.420Z,28.38
2023-05-23T16:53:33.772Z,29.64
2023-05-23T16:56:04.384Z,30.15
2023-05-23T16:58:36.076Z,30.20
2023-05-23T17:01:05.643Z,29.67
2023-05-23T17:03:34.572Z,29.86
2023-05-23T17:06:04.003Z,29.78
2023-05-23T17:08:34.295Z,29.64
2023-05-23T17:11:03.949Z,29.77
2023-05-23T17:13:33.111Z,30.29
2023-05-23T17:16:04.966Z,30.52
2023-05-23T17:18:34.001Z,30.79
2023-05-23T17:21:03.365Z,29.90
2023-05-23T17:23:32.523Z,30.62
2023-05-23T17:26:06.500Z,30.69
2023-05-23T17:28:39.609Z,31.08
2023-05-23T17:31:08.937Z,31.54
2023-05-23T17:33:37.842Z,31.13
2023-05-23T17:36:07.206Z,31.39
2023-05-23T17:38:36.109Z,31.93
2023-05-23T17:41:07.014Z,31.73
2023-05-23T17:43:35.968Z,31.85
2023-05-23T17:46:05.430Z,32.37
2023-05-23T17:48:46.498Z,31.93
2023-05-23T17:51:16.928Z,32.39
2023-05-23T17:53:45.758Z,32.49
2023-05-23T17:56:16.692Z,32.33
2023-05-23T17:58:46.037Z,32.49
2023-05-23T18:01:15.592Z,32.55
2023-05-23T18:03:44.641Z,32.76
2023-05-23T18:06:13.860Z,33.24
2023-05-23T18:08:42.934Z,33.21
2023-05-23T18:11:13.294Z,33.46
2023-05-23T18:13:46.599Z,33.34
2023-05-23T18:16:16.106Z,33.75
2023-05-23T18:18:45.252Z,33.61
2023-05-23T18:21:16.257Z,34.00
2023-05-23T18:23:47.178Z,33.96
2023-05-23T18:26:16.873Z,33.78
2023-05-23T18:28:47.893Z,33.74
2023-05-23T18:31:17.763Z,33.98
2023-05-23T18:33:47.000Z,33.76
2023-05-23T18:36:16.522Z,33.91
2023-05-23T18:38:46.122Z,33.95
2023-05-23T18:41:15.548Z,34.46
2023-05-23T18:43:44.639Z,34.35
2023-05-23T18:46:15.326Z,34.37
2023-05-23T18:48:44.397Z,34.67
2023-05-23T18:51:13.812Z,34.84
2023-05-23T18:53:43.249Z,34.88
2023-05-23T18:56:12.722Z,35.06
2023-05-23T18:58:41.977Z,35.48
2023-05-23T19:01:11.397Z,35.69
2023-05-23T19:03:41.775Z,35.67
2023-05-23T19:06:11.186Z,35.71
2023-05-23T19:08:42.255Z,35.87
2023-05-23T19:11:12.197Z,36.16
2023-05-23T19:13:41.836Z,36.18
2023-05-23T19:16:12.014Z,36.23
2023-05-23T19:18:42.388Z,36.19
2023-05-23T19:21:12.894Z,36.13
2023-05-23T19:23:42.036Z,36.18
2023-05-23T19:26:13.371Z,36.44
2023-05-23T19:28:42.365Z,36.39
2023-05-23T19:31:12.377Z,36.52
2023-05-23T19:33:42.843Z,36.13
2023-05-23T19:36:12.208Z,36.33
2023-05-23T19:38:41.218Z,36.92
2023-05-23T19:41:11.123Z,37.71
2023-05-23T19:43:40.167Z,37.82
2023-05-23T19:46:10.183Z,38.43
2023-05-23T19:48:39.379Z,38.26
2023-05-23T19:51:10.030Z,38.03
2023-05-23T19:53:39.256Z,37.75
2023-05-23T19:56:09.799Z,38.33
2023-05-23T19:58:38.772Z,38.10
2023-05-23T20:01:08.176Z,38.23
2023-05-23T20:03:37.903Z,38.70
2023-05-23T20:06:07.325Z,38.74
2023-05-23T20:08:37.819Z,38.63
2023-05-23T20:11:07.087Z,39.36
2023-05-23T20:13:37.717Z,39.44
2023-05-23T20:16:07.980Z,39.11
2023-05-23T20:18:37.335Z,39.33
2023-05-23T20:21:06.658Z,39.63
2023-05-23T20:23:37.092Z,39.77
2023-05-23T20:26:08.181Z,39.90
2023-05-23T20:28:38.590Z,39.43
2023-05-23T20:31:08.073Z,39.37
2023-05-23T20:33:37.151Z,39.73
2023-05-23T20:36:07.707Z,39.69
2023-05-23T20:38:41.830Z,39.40
2023-05-23T20:41:11.424Z,39.39
2023-05-23T20:43:40.276Z,40.11
2023-05-23T20:46:10.236Z,40.31
2023-05-23T20:48:39.150Z,41.14
2023-05-23T20:51:08.897Z,40.47
2023-05-23T20:53:37.992Z,39.90
2023-05-23T20:56:11.410Z,40.02
2023-05-23T20:58:40.925Z,39.89
2023-05-23T21:01:10.180Z,40.51
2023-05-23T21:03:39.223Z,40.35
2023-05-23T21:06:08.928Z,40.09
2023-05-23T21:08:37.967Z,40.31
2023-05-23T21:11:08.650Z,40.10
2023-05-23T21:13:39.803Z,40.38
2023-05-23T21:16:12.561Z,40.50
2023-05-23T21:18:41.799Z,40.18
2023-05-23T21:21:10.997Z,40.73
2023-05-23T21:23:40.119Z,40.36
2023-05-23T21:26:10.627Z,40.61
2023-05-23T21:28:39.621Z,40.42
2023-05-23T21:31:09.075Z,40.57
2023-05-23T21:33:38.042Z,40.66
2023-05-23T21:36:07.281Z,40.91
2023-05-23T21:38:37.583Z,40.96
2023-05-23T21:41:07.617Z,41.44
2023-05-23T21:43:37.814Z,40.73
2023-05-23T21:46:07.110Z,41.00
2023-05-23T21:48:35.957Z,41.39
2023-05-23T21:51:05.296Z,43.10
2023-05-23T21:53:35.958Z,44.81
2023-05-23T21:56:05.072Z,42.64
2023-05-23T21:58:33.986Z,43.92
2023-05-23T22:01:04.579Z,43.06
2023-05-23T22:03:33.696Z,42.54
2023-05-23T22:06:02.945Z,42.08
2023-05-23T22:08:33.223Z,42.41
2023-05-23T22:11:02.481Z,42.44
2023-05-23T22:13:31.317Z,42.24
2023-05-23T22:16:00.699Z,42.42
2023-05-23T22:18:43.748Z,42.51
2023-05-23T22:21:19.944Z,42.26
2023-05-23T22:23:48.928Z,42.34
2023-05-23T22:26:18.174Z,42.76
2023-05-23T22:28:47.280Z,42.52
2023-05-23T22:31:16.740Z,42.35
2023-05-23T22:33:47.116Z,42.50
2023-05-23T22:36:16.298Z,42.37
2023-05-23T22:38:45.262Z,42.46
2023-05-23T22:41:14.848Z,43.55
2023-05-23T22:43:43.994Z,43.03
2023-05-23T22:46:13.288Z,43.27
2023-05-23T22:48:42.073Z,43.73
2023-05-23T22:51:14.862Z,43.85
2023-05-23T22:53:44.028Z,43.57
2023-05-23T22:56:13.544Z,44.04
2023-05-23T22:58:42.506Z,43.89
2023-05-23T23:01:11.671Z,44.36
2023-05-23T23:03:40.810Z,45.16
2023-05-23T23:06:09.992Z,45.54
2023-05-23T23:08:40.299Z,46.00
2023-05-23T23:11:09.543Z,46.55
2023-05-23T23:13:38.397Z,46.10
2023-05-23T23:16:08.679Z,48.35
2023-05-23T23:18:37.808Z,48.47
2023-05-23T23:21:06.979Z,47.08
2023-05-23T23:23:36.688Z,47.74
2023-05-23T23:26:07.289Z,47.56
2023-05-23T23:28:36.175Z,52.00
2023-05-23T23:31:05.374Z,47.60
2023-05-23T23:33:34.261Z,50.36
2023-05-23T23:36:03.443Z,49.07
2023-05-23T23:38:32.446Z,49.27
2023-05-23T23:41:01.541Z,47.19
2023-05-23T23:43:31.875Z,48.23
2023-05-23T23:46:01.149Z,47.72
2023-05-23T23:48:30.100Z,48.13
2023-05-23T23:50:59.198Z,47.58
2023-05-23T23:53:28.082Z,47.73
2023-05-23T23:55:57.216Z,48.47
2023-05-23T23:58:26.122Z,51.98
